createdAt,value
2017-11-29T00:02:01.233Z,15.15
2017-11-29T00:04:28.804Z,14.00
2017-11-29T00:06:56.338Z,15.02
2017-11-29T00:09:23.867Z,13.80
2017-11-29T00:11:52.619Z,14.15
2017-11-29T00:14:21.175Z,13.30
2017-11-29T00:16:50.071Z,13.05
2017-11-29T00:19:18.599Z,15.77
2017-11-29T00:21:47.594Z,14.10
2017-11-29T00:24:16.201Z,13.85
2017-11-29T00:26:43.900Z,14.55
2017-11-29T00:29:11.537Z,14.05
2017-11-29T00:31:39.623Z,16.15
2017-11-29T00:34:07.435Z,14.80
2017-11-29T00:36:35.113Z,15.48
2017-11-29T00:39:03.392Z,14.98
2017-11-29T00:41:32.149Z,15.90
2017-11-29T00:43:59.814Z,16.20
2017-11-29T00:46:27.770Z,15.95
2017-11-29T00:48:56.129Z,15.70
2017-11-29T00:51:23.677Z,14.25
2017-11-29T00:53:51.890Z,14.73
2017-11-29T00:56:19.534Z,16.08
2017-11-29T00:58:47.081Z,15.80
2017-11-29T01:01:14.599Z,15.65
2017-11-29T01:03:42.917Z,14.90
2017-11-29T01:06:10.512Z,15.40
2017-11-29T01:08:38.039Z,15.13
2017-11-29T01:11:05.707Z,15.40
2017-11-29T01:13:33.461Z,16.17
2017-11-29T01:16:00.986Z,15.65
2017-11-29T01:18:29.300Z,14.50
2017-11-29T01:20:56.832Z,15.95
2017-11-29T01:23:24.348Z,14.82
2017-11-29T01:25:52.702Z,15.48
2017-11-29T01:28:20.680Z,15.43
2017-11-29T01:30:48.328Z,15.60
2017-11-29T01:33:17.145Z,15.20
2017-11-29T01:35:44.682Z,15.63
2017-11-29T01:38:12.689Z,17.37
2017-11-29T01:40:41.092Z,18.20
2017-11-29T01:43:09.402Z,16.30
2017-11-29T01:45:36.904Z,15.30
2017-11-29T01:48:05.217Z,16.98
2017-11-29T01:50:32.765Z,15.82
2017-11-29T01:53:00.288Z,15.75
2017-11-29T01:55:28.098Z,15.73
2017-11-29T01:57:55.864Z,16.87
2017-11-29T02:00:23.583Z,17.42
2017-11-29T02:02:51.910Z,16.33
2017-11-29T02:05:19.464Z,18.02
2017-11-29T02:07:48.299Z,17.80
2017-11-29T02:10:15.879Z,17.42
2017-11-29T02:12:43.420Z,17.00
2017-11-29T02:15:10.936Z,18.23
2017-11-29T02:17:38.564Z,17.37
2017-11-29T02:20:06.895Z,17.90
2017-11-29T02:22:34.442Z,18.30
2017-11-29T02:25:01.966Z,16.92
2017-11-29T02:27:30.249Z,14.30
2017-11-29T02:29:59.121Z,17.33
2017-11-29T02:32:27.512Z,17.60
2017-11-29T02:34:55.822Z,17.75
2017-11-29T02:37:23.364Z,17.65
2017-11-29T02:40:02.741Z,16.15
2017-11-29T02:42:39.250Z,17.17
2017-11-29T02:45:07.194Z,18.27
2017-11-29T02:47:35.253Z,17.62
2017-11-29T02:50:02.811Z,16.77
2017-11-29T02:52:30.585Z,17.20
2017-11-29T02:54:59.361Z,16.48
2017-11-29T02:57:28.453Z,16.75
2017-11-29T02:59:56.000Z,18.33
2017-11-29T03:02:24.099Z,16.33
2017-11-29T03:04:52.561Z,19.42
2017-11-29T03:07:20.493Z,18.95
2017-11-29T03:09:48.858Z,17.50
2017-11-29T03:12:17.179Z,16.98
2017-11-29T03:14:45.709Z,18.85
2017-11-29T03:17:13.546Z,17.52
2017-11-29T03:19:41.212Z,16.62
2017-11-29T03:22:08.785Z,18.00
2017-11-29T03:24:36.301Z,18.60
2017-11-29T03:27:03.849Z,17.62
2017-11-29T03:29:31.376Z,18.70
2017-11-29T03:31:59.513Z,17.20
2017-11-29T03:34:27.192Z,18.98
2017-11-29T03:36:54.702Z,18.23
2017-11-29T03:39:22.207Z,18.10
2017-11-29T03:41:49.763Z,19.62
2017-11-29T03:44:17.727Z,19.60
2017-11-29T03:46:45.320Z,19.35
2017-11-29T03:49:13.392Z,18.67
2017-11-29T03:51:41.772Z,19.10
2017-11-29T03:54:09.444Z,18.60
2017-11-29T03:56:37.772Z,19.75
2017-11-29T03:59:05.531Z,18.85
2017-11-29T04:01:33.314Z,19.20
2017-11-29T04:04:01.112Z,19.35
2017-11-29T04:06:29.604Z,19.30
2017-11-29T04:08:57.893Z,20.05
2017-11-29T04:11:25.616Z,19.80
2017-11-29T04:13:53.499Z,19.15
2017-11-29T04:16:21.133Z,21.30
2017-11-29T04:18:50.418Z,21.15
2017-11-29T04:21:18.019Z,20.02
2017-11-29T04:23:45.545Z,19.00
2017-11-29T04:26:13.078Z,21.02
2017-11-29T04:28:40.669Z,23.20
2017-11-29T04:31:09.460Z,22.48
2017-11-29T04:33:37.477Z,21.42
2017-11-29T04:36:06.349Z,22.60
2017-11-29T04:38:33.884Z,22.90
2017-11-29T04:41:01.435Z,20.70
2017-11-29T04:43:28.939Z,22.33
2017-11-29T04:45:59.414Z,22.60
2017-11-29T04:48:27.119Z,21.80
2017-11-29T04:50:55.417Z,21.48
2017-11-29T04:53:23.422Z,25.37
2017-11-29T04:55:52.318Z,24.35
2017-11-29T04:58:20.328Z,24.33
2017-11-29T05:00:47.909Z,23.75
2017-11-29T05:03:15.995Z,25.88
2017-11-29T05:05:43.890Z,23.55
2017-11-29T05:08:11.506Z,25.25
2017-11-29T05:10:40.463Z,25.33
2017-11-29T05:13:08.014Z,26.30
2017-11-29T05:15:36.160Z,25.25
2017-11-29T05:18:03.719Z,25.10
2017-11-29T05:20:31.438Z,25.23
2017-11-29T05:22:59.714Z,27.05
2017-11-29T05:25:28.019Z,25.35
2017-11-29T05:27:55.537Z,26.73
2017-11-29T05:30:23.481Z,24.85
2017-11-29T05:32:51.903Z,28.65
2017-11-29T05:35:19.631Z,26.42
2017-11-29T05:37:47.433Z,27.30
2017-11-29T05:40:16.082Z,25.55
2017-11-29T05:42:44.039Z,27.62
2017-11-29T05:45:12.261Z,24.12
2017-11-29T05:47:40.440Z,27.23
2017-11-29T05:50:08.769Z,23.70
2017-11-29T05:52:36.338Z,25.85
2017-11-29T05:55:04.457Z,25.35
2017-11-29T05:57:32.572Z,26.90
2017-11-29T06:00:02.283Z,25.90
2017-11-29T06:02:29.818Z,25.37
2017-11-29T06:04:58.030Z,25.77
2017-11-29T06:07:25.592Z,25.73
2017-11-29T06:09:53.145Z,26.20
2017-11-29T06:12:20.696Z,27.23
2017-11-29T06:14:49.179Z,27.58
2017-11-29T06:17:16.748Z,29.75
2017-11-29T06:19:45.740Z,29.17
2017-11-29T06:22:13.609Z,26.75
2017-11-29T06:24:41.894Z,28.98
2017-11-29T06:27:09.654Z,29.98
2017-11-29T06:29:37.641Z,30.95
2017-11-29T06:32:05.249Z,28.02
2017-11-29T06:34:33.251Z,29.80
2017-11-29T06:37:01.566Z,28.15
2017-11-29T06:39:29.101Z,28.73
2017-11-29T06:41:57.791Z,27.87
2017-11-29T06:44:25.341Z,29.20
2017-11-29T06:46:53.627Z,30.65
2017-11-29T06:49:21.234Z,28.23
2017-11-29T06:51:49.677Z,28.92
2017-11-29T06:54:17.965Z,27.80
2017-11-29T06:56:45.514Z,27.85
2017-11-29T06:59:13.998Z,29.00
2017-11-29T07:01:41.697Z,28.65
2017-11-29T07:04:09.256Z,25.75
2017-11-29T07:06:36.812Z,27.83
2017-11-29T07:09:04.411Z,25.55
2017-11-29T07:11:31.954Z,28.23
2017-11-29T07:13:59.462Z,26.92
2017-11-29T07:16:26.966Z,23.98
2017-11-29T07:18:54.497Z,23.92
2017-11-29T07:21:22.074Z,23.70
2017-11-29T07:23:49.581Z,23.20
2017-11-29T07:26:18.078Z,25.60
2017-11-29T07:28:45.588Z,26.58
2017-11-29T07:31:13.386Z,26.60
2017-11-29T07:33:42.045Z,25.02
2017-11-29T07:36:10.158Z,24.55
2017-11-29T07:38:38.597Z,21.95
2017-11-29T07:41:06.164Z,26.17
2017-11-29T07:43:34.338Z,27.17
2017-11-29T07:46:02.645Z,27.35
2017-11-29T07:48:30.995Z,24.20
2017-11-29T07:50:58.513Z,26.73
2017-11-29T07:53:26.046Z,27.00
2017-11-29T07:55:53.597Z,23.65
2017-11-29T07:58:21.132Z,27.42
2017-11-29T08:00:48.901Z,27.30
2017-11-29T08:03:17.197Z,26.73
2017-11-29T08:05:45.548Z,28.17
2017-11-29T08:08:13.141Z,27.10
2017-11-29T08:10:40.696Z,26.27
2017-11-29T08:13:09.005Z,26.50
2017-11-29T08:15:36.536Z,28.42
2017-11-29T08:18:05.855Z,28.38
2017-11-29T08:20:33.373Z,27.87
2017-11-29T08:23:01.672Z,27.65
2017-11-29T08:25:29.985Z,26.52
2017-11-29T08:27:57.545Z,28.23
2017-11-29T08:30:25.247Z,29.67
2017-11-29T08:32:56.800Z,30.48
2017-11-29T08:35:24.506Z,30.80
2017-11-29T08:37:52.057Z,31.52
2017-11-29T08:40:19.636Z,33.30
2017-11-29T08:42:49.601Z,30.37
2017-11-29T08:45:17.137Z,31.10
2017-11-29T08:47:44.779Z,30.30
2017-11-29T08:50:12.439Z,31.42
2017-11-29T08:52:40.037Z,31.33
2017-11-29T08:55:07.678Z,31.10
2017-11-29T08:57:35.325Z,31.62
2017-11-29T09:00:03.882Z,29.52
2017-11-29T09:02:31.430Z,28.20
2017-11-29T09:04:59.765Z,27.37
2017-11-29T09:07:27.284Z,25.75
2017-11-29T09:09:54.809Z,25.45
2017-11-29T09:12:22.339Z,25.12
2017-11-29T09:14:50.169Z,24.52
2017-11-29T09:17:18.003Z,24.63
2017-11-29T09:19:45.581Z,25.88
2017-11-29T09:22:13.869Z,26.30
2017-11-29T09:24:42.182Z,27.85
2017-11-29T09:27:10.619Z,25.80
2017-11-29T09:29:38.932Z,25.95
2017-11-29T09:32:06.524Z,21.23
2017-11-29T09:34:34.833Z,21.75
2017-11-29T09:37:03.115Z,23.67
2017-11-29T09:39:31.447Z,23.10
2017-11-29T09:41:58.978Z,21.10
2017-11-29T09:44:26.505Z,20.95
2017-11-29T09:46:54.819Z,19.08
2017-11-29T09:49:23.231Z,18.55
2017-11-29T09:51:50.735Z,19.95
2017-11-29T09:54:18.302Z,17.90
2017-11-29T09:56:46.020Z,17.90
2017-11-29T09:59:14.328Z,17.50
2017-11-29T10:01:43.287Z,17.25
2017-11-29T10:04:10.889Z,16.37
2017-11-29T10:06:38.410Z,15.13
2017-11-29T10:09:05.987Z,17.65
2017-11-29T10:11:34.532Z,13.60
2017-11-29T10:14:02.114Z,15.40
2017-11-29T10:16:29.667Z,15.95
2017-11-29T10:18:57.295Z,17.67
2017-11-29T10:21:24.880Z,13.90
2017-11-29T10:23:52.435Z,14.77
2017-11-29T10:26:19.942Z,13.38
2017-11-29T10:28:48.209Z,12.02
2017-11-29T10:31:16.631Z,13.48
2017-11-29T10:33:44.989Z,14.32
2017-11-29T10:36:13.293Z,16.00
2017-11-29T10:38:41.089Z,13.88
2017-11-29T10:41:08.932Z,17.35
2017-11-29T10:43:36.443Z,15.52
2017-11-29T10:46:05.008Z,14.48
2017-11-29T10:48:32.771Z,13.98
2017-11-29T10:51:01.239Z,15.10
2017-11-29T10:53:29.671Z,14.87
2017-11-29T10:55:57.217Z,14.50
2017-11-29T10:58:24.742Z,11.90
2017-11-29T11:00:52.303Z,13.05
2017-11-29T11:03:19.854Z,12.50
2017-11-29T11:05:47.428Z,11.43
2017-11-29T11:08:14.981Z,11.90
2017-11-29T11:10:42.516Z,10.32
2017-11-29T11:13:10.063Z,11.43
2017-11-29T11:15:37.621Z,10.32
2017-11-29T11:18:05.564Z,9.32
2017-11-29T11:20:33.312Z,10.75
2017-11-29T11:23:01.605Z,11.15
2017-11-29T11:25:29.131Z,9.77
2017-11-29T11:27:56.820Z,10.30
2017-11-29T11:30:24.906Z,9.30
2017-11-29T11:32:52.726Z,10.88
2017-11-29T11:35:20.327Z,11.02
2017-11-29T11:37:47.887Z,9.60
2017-11-29T11:40:15.961Z,10.45
2017-11-29T11:42:43.609Z,10.75
2017-11-29T11:45:11.259Z,10.10
2017-11-29T11:47:39.534Z,10.68
2017-11-29T11:50:07.822Z,10.10
2017-11-29T11:52:35.382Z,11.55
2017-11-29T11:55:02.963Z,11.07
2017-11-29T11:57:30.580Z,10.73
2017-11-29T11:59:58.245Z,10.93
2017-11-29T12:02:26.845Z,9.90
2017-11-29T12:04:54.454Z,9.85
2017-11-29T12:07:22.994Z,9.60
2017-11-29T12:09:51.552Z,9.55
2017-11-29T12:12:19.428Z,8.98
2017-11-29T12:14:47.212Z,8.68
2017-11-29T12:17:15.128Z,8.93
2017-11-29T12:19:43.774Z,9.10
2017-11-29T12:22:11.707Z,8.43
2017-11-29T12:24:39.710Z,8.40
2017-11-29T12:27:07.631Z,9.00
2017-11-29T12:29:36.409Z,8.38
2017-11-29T12:32:04.709Z,8.55
2017-11-29T12:34:32.918Z,8.90
2017-11-29T12:37:01.823Z,8.90
2017-11-29T12:39:30.016Z,8.68
2017-11-29T12:41:58.149Z,8.68
2017-11-29T12:44:27.112Z,8.52
2017-11-29T12:46:56.257Z,8.57
2017-11-29T12:49:36.347Z,8.70
2017-11-29T12:52:04.544Z,8.98
2017-11-29T12:54:33.036Z,8.35
2017-11-29T12:57:02.990Z,6.62
2017-11-29T12:59:31.291Z,7.43
2017-11-29T13:02:00.213Z,7.07
2017-11-29T13:04:29.073Z,7.45
2017-11-29T13:06:57.262Z,7.65
2017-11-29T13:09:31.550Z,6.45
2017-11-29T13:11:59.823Z,5.32
2017-11-29T13:14:28.742Z,5.85
2017-11-29T13:16:56.890Z,5.40
2017-11-29T13:19:25.128Z,5.50
2017-11-29T13:21:53.900Z,5.75
2017-11-29T13:24:21.700Z,5.97
2017-11-29T13:26:49.572Z,5.40
2017-11-29T13:29:17.122Z,4.80
2017-11-29T13:31:44.653Z,5.25
2017-11-29T13:34:13.182Z,3.85
2017-11-29T13:36:40.704Z,4.65
2017-11-29T13:39:08.988Z,4.32
2017-11-29T13:41:36.570Z,3.92
2017-11-29T13:44:04.081Z,3.40
2017-11-29T13:46:32.381Z,3.65
2017-11-29T13:48:59.944Z,2.62
2017-11-29T13:51:27.464Z,3.08
2017-11-29T13:53:55.017Z,3.00
2017-11-29T13:56:22.722Z,3.05
2017-11-29T13:58:50.244Z,3.50
2017-11-29T14:01:18.062Z,2.72
2017-11-29T14:03:45.601Z,2.58
2017-11-29T14:06:13.131Z,2.12
2017-11-29T14:08:40.657Z,3.10
2017-11-29T14:11:08.194Z,2.97
2017-11-29T14:13:35.776Z,3.00
2017-11-29T14:16:03.366Z,3.12
2017-11-29T14:18:30.861Z,3.00
2017-11-29T14:20:59.266Z,2.60
2017-11-29T14:23:26.907Z,2.83
2017-11-29T14:25:54.487Z,2.95
2017-11-29T14:28:22.019Z,2.80
2017-11-29T14:30:49.541Z,3.25
2017-11-29T14:33:17.076Z,3.00
2017-11-29T14:35:44.695Z,3.30
2017-11-29T14:38:12.217Z,3.08
2017-11-29T14:40:39.743Z,2.75
2017-11-29T14:43:07.277Z,2.40
2017-11-29T14:45:34.795Z,3.50
2017-11-29T14:48:02.331Z,2.80
2017-11-29T14:50:30.620Z,2.83
2017-11-29T14:52:58.122Z,2.97
2017-11-29T14:55:25.672Z,2.90
2017-11-29T14:57:53.963Z,2.95
2017-11-29T15:00:21.540Z,2.70
2017-11-29T15:02:49.077Z,2.65
2017-11-29T15:05:16.680Z,3.03
2017-11-29T15:07:44.223Z,2.75
2017-11-29T15:10:11.755Z,2.75
2017-11-29T15:12:39.253Z,3.22
2017-11-29T15:15:08.445Z,3.10
2017-11-29T15:17:35.965Z,3.67
2017-11-29T15:20:03.484Z,3.22
2017-11-29T15:22:31.045Z,2.92
2017-11-29T15:24:58.657Z,3.33
2017-11-29T15:27:27.078Z,3.58
2017-11-29T15:29:55.542Z,3.15
2017-11-29T15:32:24.033Z,3.22
2017-11-29T15:34:51.573Z,2.50
2017-11-29T15:37:19.093Z,2.95
2017-11-29T15:39:47.379Z,3.47
2017-11-29T15:42:15.667Z,2.87
2017-11-29T15:44:43.184Z,3.05
2017-11-29T15:47:11.085Z,2.58
2017-11-29T15:49:38.628Z,2.90
2017-11-29T15:52:06.949Z,2.83
2017-11-29T15:54:34.504Z,2.42
2017-11-29T15:57:02.022Z,2.78
2017-11-29T15:59:30.329Z,3.00
2017-11-29T16:01:58.422Z,3.10
2017-11-29T16:04:25.952Z,3.05
2017-11-29T16:06:54.325Z,3.30
2017-11-29T16:09:21.830Z,3.33
2017-11-29T16:11:50.525Z,3.47
2017-11-29T16:14:18.130Z,3.80
2017-11-29T16:16:45.657Z,3.25
2017-11-29T16:19:13.185Z,3.47
2017-11-29T16:21:40.845Z,4.85
2017-11-29T16:24:08.402Z,4.10
2017-11-29T16:26:35.928Z,3.62
2017-11-29T16:29:03.534Z,3.00
2017-11-29T16:31:32.435Z,3.58
2017-11-29T16:34:00.236Z,3.80
2017-11-29T16:36:28.105Z,3.85
2017-11-29T16:38:56.194Z,3.70
2017-11-29T16:41:23.927Z,4.72
2017-11-29T16:43:53.164Z,4.12
2017-11-29T16:46:21.681Z,3.50
2017-11-29T16:48:49.462Z,3.97
2017-11-29T16:51:24.432Z,4.40
2017-11-29T16:53:52.292Z,4.62
2017-11-29T16:56:28.573Z,5.32
2017-11-29T16:58:56.529Z,5.90
2017-11-29T17:01:24.809Z,5.05
2017-11-29T17:03:52.883Z,5.12
2017-11-29T17:06:21.633Z,5.22
2017-11-29T17:08:49.677Z,4.85
2017-11-29T17:11:17.874Z,6.05
2017-11-29T17:13:46.065Z,5.57
2017-11-29T17:16:14.128Z,7.28
2017-11-29T17:18:42.282Z,5.40
2017-11-29T17:21:11.019Z,4.97
2017-11-29T17:23:38.862Z,6.40
2017-11-29T17:26:06.870Z,5.22
2017-11-29T17:28:34.879Z,5.55
2017-11-29T17:31:03.966Z,5.80
2017-11-29T17:33:32.024Z,5.20
2017-11-29T17:36:00.105Z,5.53
2017-11-29T17:38:28.064Z,5.80
2017-11-29T17:40:56.210Z,7.55
2017-11-29T17:43:25.817Z,8.10
2017-11-29T17:45:53.577Z,9.43
2017-11-29T17:48:22.095Z,9.05
2017-11-29T17:50:50.469Z,9.15
2017-11-29T17:53:19.123Z,9.82
2017-11-29T17:55:46.933Z,9.75
2017-11-29T17:58:14.797Z,9.82
2017-11-29T18:00:42.602Z,9.40
2017-11-29T18:03:11.146Z,9.57
2017-11-29T18:05:39.113Z,9.45
2017-11-29T18:08:07.695Z,8.52
2017-11-29T18:10:35.769Z,9.50
2017-11-29T18:13:03.630Z,9.95
2017-11-29T18:15:31.465Z,9.60
2017-11-29T18:17:59.492Z,9.23
2017-11-29T18:20:27.372Z,9.45
2017-11-29T18:22:55.816Z,9.70
2017-11-29T18:25:23.621Z,10.20
2017-11-29T18:27:52.234Z,10.38
2017-11-29T18:30:21.451Z,9.18
2017-11-29T18:32:49.607Z,10.05
2017-11-29T18:35:17.374Z,10.70
2017-11-29T18:37:45.369Z,9.82
2017-11-29T18:40:13.211Z,10.23
2017-11-29T18:42:41.502Z,10.88
2017-11-29T18:45:09.397Z,11.23
2017-11-29T18:47:38.296Z,12.10
2017-11-29T18:50:06.474Z,11.70
2017-11-29T18:52:34.717Z,9.35
2017-11-29T18:55:02.826Z,10.70
2017-11-29T18:57:32.087Z,10.32
2017-11-29T19:00:00.715Z,10.43
2017-11-29T19:02:29.467Z,10.35
2017-11-29T19:04:58.343Z,10.30
2017-11-29T19:07:27.135Z,10.80
2017-11-29T19:09:55.934Z,11.15
2017-11-29T19:12:24.625Z,11.43
2017-11-29T19:14:53.211Z,11.85
2017-11-29T19:17:21.767Z,11.48
2017-11-29T19:19:50.464Z,13.77
2017-11-29T19:22:19.143Z,14.05
2017-11-29T19:24:47.629Z,14.95
2017-11-29T19:27:16.725Z,14.98
2017-11-29T19:29:45.215Z,14.32
2017-11-29T19:32:15.634Z,16.02
2017-11-29T19:34:44.721Z,16.00
2017-11-29T19:37:13.311Z,16.98
2017-11-29T19:39:42.000Z,15.90
2017-11-29T19:42:10.896Z,16.80
2017-11-29T19:44:40.532Z,16.12
2017-11-29T19:47:09.596Z,18.77
2017-11-29T19:49:38.425Z,18.35
2017-11-29T19:52:06.449Z,17.48
2017-11-29T19:54:34.583Z,17.58
2017-11-29T19:57:02.257Z,17.12
2017-11-29T19:59:31.368Z,19.50
2017-11-29T20:01:59.763Z,19.17
2017-11-29T20:04:27.731Z,18.50
2017-11-29T20:06:57.867Z,18.35
2017-11-29T20:09:26.890Z,18.60
2017-11-29T20:11:55.634Z,18.05
2017-11-29T20:14:23.697Z,17.12
2017-11-29T20:16:51.792Z,18.15
2017-11-29T20:19:20.496Z,16.83
2017-11-29T20:21:48.707Z,16.33
2017-11-29T20:24:16.640Z,15.73
2017-11-29T20:26:45.496Z,14.75
2017-11-29T20:29:13.428Z,15.82
2017-11-29T20:31:41.438Z,14.63
2017-11-29T20:34:09.306Z,13.65
2017-11-29T20:36:37.760Z,14.95
2017-11-29T20:39:05.762Z,14.82
2017-11-29T20:41:33.530Z,15.55
2017-11-29T20:44:02.501Z,14.93
2017-11-29T20:46:30.459Z,15.73
2017-11-29T20:48:58.300Z,15.65
2017-11-29T20:51:26.553Z,14.25
2017-11-29T20:53:54.295Z,13.50
2017-11-29T20:56:22.043Z,15.38
2017-11-29T20:58:49.844Z,12.85
2017-11-29T21:01:18.341Z,16.25
2017-11-29T21:03:46.153Z,14.30
2017-11-29T21:06:14.043Z,13.75
2017-11-29T21:08:41.784Z,14.40
2017-11-29T21:11:11.827Z,13.30
2017-11-29T21:13:40.400Z,15.52
2017-11-29T21:16:08.795Z,16.08
2017-11-29T21:18:36.774Z,17.75
2017-11-29T21:21:05.832Z,15.68
2017-11-29T21:26:26.076Z,17.08
2017-11-29T21:28:54.146Z,16.90
2017-11-29T21:31:21.874Z,16.98
2017-11-29T21:33:49.597Z,17.37
2017-11-29T21:36:17.460Z,15.70
2017-11-29T21:38:45.238Z,16.17
2017-11-29T21:41:13.901Z,16.85
2017-11-29T21:43:41.640Z,17.05
2017-11-29T21:46:10.385Z,16.50
2017-11-29T21:48:38.387Z,17.70
2017-11-29T21:51:07.086Z,16.90
2017-11-29T21:53:34.850Z,16.62
2017-11-29T21:56:02.613Z,16.90
2017-11-29T21:58:30.787Z,17.08
2017-11-29T22:00:58.758Z,19.15
2017-11-29T22:03:26.544Z,18.00
2017-11-29T22:05:54.289Z,18.65
2017-11-29T22:08:22.753Z,19.35
2017-11-29T22:10:50.765Z,19.52
2017-11-29T22:13:19.135Z,18.80
2017-11-29T22:15:47.050Z,17.77
2017-11-29T22:18:15.465Z,19.62
2017-11-29T22:20:44.036Z,19.05
2017-11-29T22:23:12.017Z,19.52
2017-11-29T22:25:39.622Z,19.55
2017-11-29T22:28:08.208Z,19.05
2017-11-29T22:30:35.931Z,19.10
2017-11-29T22:33:03.803Z,18.65
2017-11-29T22:35:32.485Z,20.45
2017-11-29T22:38:00.466Z,20.88
2017-11-29T22:40:29.118Z,21.20
2017-11-29T22:42:57.062Z,21.98
2017-11-29T22:45:25.453Z,20.25
2017-11-29T22:47:53.211Z,19.95
2017-11-29T22:50:20.822Z,20.25
2017-11-29T22:52:48.884Z,22.40
2017-11-29T22:55:17.237Z,21.48
2017-11-29T22:57:45.205Z,22.95
2017-11-29T23:00:13.829Z,23.10
2017-11-29T23:02:41.375Z,25.73
2017-11-29T23:05:09.319Z,23.40
2017-11-29T23:07:37.826Z,25.83
2017-11-29T23:10:05.467Z,25.67
2017-11-29T23:12:33.232Z,24.90
2017-11-29T23:15:01.739Z,23.85
2017-11-29T23:17:30.229Z,23.17
2017-11-29T23:19:58.478Z,24.10
2017-11-29T23:22:27.061Z,23.40
2017-11-29T23:24:54.844Z,21.42
2017-11-29T23:27:22.596Z,20.45
2017-11-29T23:29:50.460Z,20.05
2017-11-29T23:32:18.342Z,20.05
2017-11-29T23:34:46.082Z,23.30
2017-11-29T23:37:14.687Z,20.83
2017-11-29T23:39:43.313Z,20.62
2017-11-29T23:42:11.640Z,19.33
2017-11-29T23:44:40.239Z,21.25
2017-11-29T23:47:08.983Z,21.08
2017-11-29T23:49:37.601Z,19.27
2017-11-29T23:52:06.369Z,21.55
2017-11-29T23:54:34.991Z,19.80
2017-11-29T23:57:03.742Z,21.75
2017-11-29T23:59:32.338Z,18.25
